Skip Navigation Links
NOAA logo - Click to go to the NOAA homepage
NOAA's National Weather Service
Alaska Aviation Weather Unit
  NWS logo - Click to go to the NWS homepage
Left Navbar Graphic     10 AKDT = 18 GMT

   
NOAA is celebrating 200 years of science, service, and stewardship. Visit the NOAA 200th celebration Web site to learn more.
USA.gov is the U.S. Government's official Web portal to all Federal, state and local government Web resources and services.
Facebook
NWS on Facebook

Important Change Regarding the AAWU Web Presence

 

Over the last several months, the AAWU has been working to navigate its webpages to a nationally supported server. Security, as well as other needs, have necessitated the change.  We have been given an extension for the site changeover while we diligently work at addressing feedback received. As of July 14, 2017, aawu.arh.noaa.gov will be discontinued. The new AAWU web address is weather.gov/aawu. It is now live and will run in-parallel with the old site until it is discontinued on July 14, 2017. Please continue to send any feedback or questions regarding the new webpages to nws.ar.aawu.webauthors@noaa.gov.  Thank you for your patience during this time of transition.
AAWU Home :: Display TAF Add Bookmark
METAR PAWS 261256Z AUTO 00000KT 10SM CLR 03/02 A2976 RMK AO2 SLP094
 T00280022=

METAR PAWS 261356Z AUTO 00000KT 10SM CLR 02/01 A2975 RMK AO2 SLP089
     T00170011 FZRANO=

METAR PAWS 261456Z AUTO 25003KT 1 1/2SM BR FEW002 00/M01 A2974 RMK
 AO2 SLP085 T00001006 56014 FZRANO=

SPECI PAWS 261509Z AUTO 24003KT 2 1/2SM BR CLR 00/M01 A2974 RMK AO2
     FZRANO=

SPECI PAWS 261539Z AUTO 27003KT 6SM BR CLR M01/M01 A2974 RMK AO2
     FZRANO=

PAWS 261547Z AUTO 23003KT 2SM BR FEW001 M01/M01 A2974 RMK AO2
     FZRANO=

METAR PAWS 261556Z AUTO 24003KT 1/4SM FZFG BKN001 M01/M01 A2973 RMK AO2
     SLP084 T10111011 FZRANO RVRNO=

METAR PAWS 261756Z AUTO 00000KT 1/4SM FG OVC001 01/01 A2971 RMK AO2
     SLP077 T00110011 10044 21011 58008 FZRANO RVRNO=

SPECI PAWS 261816Z AUTO 00000KT 3/4SM BR OVC001 02/02 A2970 RMK AO2
     FZRANO RVRNO=

SPECI PAWS 261818Z AUTO 00000KT 1 1/4SM BR OVC001 02/02 A2970 RMK
 AO2 VIS 1/2V5 FZRANO=


NOAA's National Weather Service
Alaska Aviation Weather Unit
6930 Sand Lake Road
Anchorage, AK 99502-1845
Disclaimer
Credits
Glossary
Privacy Policy
About Us
Career Opportunities
Contact AAWU Internet Services Site last modified: April, 17th 2012